Birch Run, Michigan
Current Conditions -  °F | °C
As of 8:34 AM on Friday 24 Oct 2014 (Local Time) from KHYX Reporting Station
Haze Haze  
Wind Chill: 37°   Ceiling: Unl
Heat Index: 37°   Visibility: 5mi
Dew Point: 37°   Wind: 3mph
Humidity: 100%   Direction: 180°S
Pressure: 30.06"   Gusts: NA
Location:  43.25°N, 83.79°W
Report Text: KHYX 241234Z AUTO 18003KT 5SM BR SCT042 03/03 A3006 RMK AO2
Loading
Personal Weather Stations






























Interactive Weather Map
Tropical Storm Tracking
New forecast layout! Learn more

10-Day Weather Forecast

Advertisements
Track Severe Weather on mobile